createdAt,value
2024-02-15T00:01:34.488Z,14.70
2024-02-15T00:04:02.383Z,14.80
2024-02-15T00:06:30.473Z,14.90
2024-02-15T00:08:58.514Z,14.80
2024-02-15T00:11:26.495Z,14.60
2024-02-15T00:13:54.786Z,14.60
2024-02-15T00:16:24.158Z,14.50
2024-02-15T00:18:52.162Z,14.60
2024-02-15T00:21:20.139Z,14.70
2024-02-15T00:23:48.173Z,14.70
2024-02-15T00:26:16.129Z,14.60
2024-02-15T00:28:45.005Z,14.70
2024-02-15T00:31:12.977Z,14.70
2024-02-15T00:33:42.568Z,14.80
2024-02-15T00:36:13.441Z,14.80
2024-02-15T00:38:41.591Z,14.70
2024-02-15T00:41:09.604Z,14.80
2024-02-15T00:43:37.782Z,14.80
2024-02-15T00:46:05.995Z,14.80
2024-02-15T00:48:34.162Z,14.80
2024-02-15T00:51:04.379Z,14.90
2024-02-15T00:53:32.729Z,14.80
2024-02-15T00:56:00.792Z,14.80
2024-02-15T00:58:28.785Z,14.90
2024-02-15T01:00:56.915Z,14.90
2024-02-15T01:03:25.039Z,14.90
2024-02-15T01:05:53.061Z,15.00
2024-02-15T01:08:22.766Z,14.90
2024-02-15T01:10:50.879Z,15.10
2024-02-15T01:13:18.926Z,15.20
2024-02-15T01:15:47.278Z,15.20
2024-02-15T01:18:15.385Z,15.10
2024-02-15T01:20:43.442Z,15.10
2024-02-15T01:23:11.536Z,15.10
2024-02-15T01:25:41.839Z,15.20
2024-02-15T01:28:09.762Z,15.10
2024-02-15T01:30:38.832Z,15.10
2024-02-15T01:33:06.830Z,15.10
2024-02-15T01:35:34.997Z,15.10
2024-02-15T01:38:02.932Z,15.10
2024-02-15T01:40:30.917Z,15.10
2024-02-15T01:43:01.680Z,15.00
2024-02-15T01:45:30.496Z,15.00
2024-02-15T01:47:58.726Z,14.90
2024-02-15T01:50:29.625Z,14.90
2024-02-15T01:53:00.552Z,14.90
2024-02-15T01:55:28.483Z,14.90
2024-02-15T01:57:55.523Z,14.80
2024-02-15T02:00:25.438Z,14.80
2024-02-15T02:03:00.992Z,14.70
2024-02-15T02:05:30.787Z,14.70
2024-02-15T02:08:03.019Z,14.70
2024-02-15T02:10:34.226Z,14.90
2024-02-15T02:13:03.832Z,14.80
2024-02-15T02:15:34.011Z,14.80
2024-02-15T02:18:03.324Z,14.80
2024-02-15T02:20:31.561Z,14.80
2024-02-15T02:23:11.103Z,14.70
2024-02-15T02:25:40.892Z,14.80
2024-02-15T02:28:10.392Z,14.70
2024-02-15T02:30:38.651Z,14.80
2024-02-15T02:33:08.678Z,14.80
2024-02-15T02:35:37.957Z,14.80
2024-02-15T02:38:06.014Z,14.70
2024-02-15T02:40:35.138Z,14.60
2024-02-15T02:43:05.229Z,14.70
2024-02-15T02:45:33.152Z,14.80
2024-02-15T02:48:01.217Z,14.90
2024-02-15T02:50:29.444Z,14.90
2024-02-15T02:52:57.531Z,14.80
2024-02-15T02:55:27.601Z,14.60
2024-02-15T02:57:56.441Z,14.70
2024-02-15T03:00:26.042Z,14.70
2024-02-15T03:02:58.225Z,14.80
2024-02-15T03:05:26.876Z,14.90
2024-02-15T03:07:54.915Z,14.90
2024-02-15T03:10:23.151Z,14.90
2024-02-15T03:12:51.074Z,15.00
2024-02-15T03:15:19.975Z,14.80
2024-02-15T03:17:50.564Z,14.80
2024-02-15T03:20:25.652Z,14.80
2024-02-15T03:22:55.192Z,14.80
2024-02-15T03:25:25.241Z,14.90
2024-02-15T03:27:54.529Z,14.90
2024-02-15T03:30:22.955Z,14.90
2024-02-15T03:32:53.850Z,15.00
2024-02-15T03:35:23.662Z,14.90
2024-02-15T03:37:53.774Z,14.90
2024-02-15T03:40:23.352Z,15.00
2024-02-15T03:42:52.315Z,15.00
2024-02-15T03:45:20.499Z,15.10
2024-02-15T03:47:48.714Z,15.00
2024-02-15T03:50:20.297Z,15.10
2024-02-15T03:52:48.371Z,15.20
2024-02-15T03:55:16.791Z,15.10
2024-02-15T03:57:46.299Z,14.80
2024-02-15T04:00:22.934Z,14.90
2024-02-15T04:02:51.903Z,15.00
2024-02-15T04:05:23.128Z,15.00
2024-02-15T04:07:51.510Z,15.10
2024-02-15T04:10:20.053Z,15.20
2024-02-15T04:12:47.957Z,15.20
2024-02-15T04:15:18.825Z,15.30
2024-02-15T04:17:47.549Z,15.30
2024-02-15T04:20:17.718Z,15.20
2024-02-15T04:22:48.903Z,15.10
2024-02-15T04:25:17.982Z,14.90
2024-02-15T04:27:47.589Z,14.90
2024-02-15T04:30:17.163Z,14.90
2024-02-15T04:32:45.991Z,15.00
2024-02-15T04:35:14.927Z,15.00
2024-02-15T04:37:43.328Z,15.10
2024-02-15T04:40:15.230Z,15.10
2024-02-15T04:42:46.293Z,15.10
2024-02-15T04:45:16.716Z,15.30
2024-02-15T04:47:46.828Z,15.30
2024-02-15T04:50:16.436Z,15.20
2024-02-15T04:52:46.567Z,15.20
2024-02-15T04:55:17.037Z,15.20
2024-02-15T04:57:44.875Z,15.10
2024-02-15T05:00:16.398Z,15.00
2024-02-15T05:02:45.786Z,15.00
2024-02-15T05:05:15.055Z,14.90
2024-02-15T05:07:44.228Z,14.90
2024-02-15T05:10:13.643Z,14.80
2024-02-15T05:12:43.778Z,15.00
2024-02-15T05:15:13.500Z,15.10
2024-02-15T05:17:43.611Z,15.10
2024-02-15T05:20:14.629Z,15.00
2024-02-15T05:22:49.957Z,15.10
2024-02-15T05:25:23.822Z,15.10
2024-02-15T05:27:56.080Z,15.20
2024-02-15T05:30:24.899Z,15.20
2024-02-15T05:32:54.584Z,15.20
2024-02-15T05:35:23.048Z,15.10
2024-02-15T05:37:53.801Z,15.10
2024-02-15T05:40:21.885Z,15.20
2024-02-15T05:42:50.916Z,15.20
2024-02-15T05:45:38.534Z,15.10
2024-02-15T05:48:10.092Z,15.10
2024-02-15T05:50:38.493Z,15.00
2024-02-15T05:53:08.877Z,15.10
2024-02-15T05:55:38.939Z,15.20
2024-02-15T05:58:07.139Z,15.20
2024-02-15T06:00:36.514Z,15.20
2024-02-15T06:03:07.102Z,15.20
2024-02-15T06:05:35.074Z,15.30
2024-02-15T06:08:03.117Z,15.40
2024-02-15T06:10:31.415Z,15.20
2024-02-15T06:13:00.244Z,15.30
2024-02-15T06:15:28.249Z,15.20
2024-02-15T06:17:58.428Z,15.20
2024-02-15T06:20:29.777Z,15.20
2024-02-15T06:22:58.081Z,15.20
2024-02-15T06:25:26.093Z,15.20
2024-02-15T06:27:59.794Z,15.20
2024-02-15T06:30:45.625Z,15.30
2024-02-15T06:33:37.893Z,15.30
2024-02-15T06:36:26.898Z,15.30
2024-02-15T06:39:12.380Z,15.30
2024-02-15T06:41:41.911Z,15.30
2024-02-15T06:44:10.694Z,15.30
2024-02-15T06:46:38.727Z,15.30
2024-02-15T06:49:08.074Z,15.20
2024-02-15T06:51:36.035Z,15.30
2024-02-15T06:54:04.302Z,15.40
2024-02-15T06:56:32.318Z,15.40
2024-02-15T06:59:00.990Z,15.40
2024-02-15T07:01:29.419Z,15.50
2024-02-15T07:03:59.724Z,15.50
2024-02-15T07:06:30.210Z,15.60
2024-02-15T07:08:59.119Z,15.60
2024-02-15T07:11:27.244Z,15.70
2024-02-15T07:13:55.972Z,15.70
2024-02-15T07:16:24.397Z,15.70
2024-02-15T07:18:53.335Z,15.80
2024-02-15T07:21:26.837Z,15.80
2024-02-15T07:23:56.507Z,15.70
2024-02-15T07:26:26.324Z,15.70
2024-02-15T07:28:54.840Z,15.70
2024-02-15T07:31:23.347Z,15.70
2024-02-15T07:33:52.621Z,15.60
2024-02-15T07:36:22.782Z,15.50
2024-02-15T07:38:50.872Z,15.50
2024-02-15T07:41:27.952Z,15.40
2024-02-15T07:44:00.258Z,15.50
2024-02-15T07:46:28.087Z,15.50
2024-02-15T07:48:56.134Z,15.50
2024-02-15T07:51:31.046Z,15.50
2024-02-15T07:54:00.723Z,15.50
2024-02-15T07:56:29.945Z,15.50
2024-02-15T07:59:00.440Z,15.60
2024-02-15T08:01:28.605Z,15.50
2024-02-15T08:03:56.708Z,15.50
2024-02-15T08:06:28.014Z,15.50
2024-02-15T08:08:58.907Z,15.50
2024-02-15T08:11:28.317Z,15.50
2024-02-15T08:14:00.063Z,15.50
2024-02-15T08:16:29.254Z,15.60
2024-02-15T08:18:58.880Z,15.70
2024-02-15T08:21:32.735Z,15.80
2024-02-15T08:24:05.465Z,15.70
2024-02-15T08:26:34.894Z,15.80
2024-02-15T08:29:10.594Z,15.90
2024-02-15T08:31:38.607Z,16.10
2024-02-15T08:34:07.626Z,16.10
2024-02-15T08:36:37.574Z,16.10
2024-02-15T08:39:06.718Z,16.20
2024-02-15T08:41:36.120Z,16.30
2024-02-15T08:44:09.580Z,16.40
2024-02-15T08:46:41.730Z,16.40
2024-02-15T08:49:14.636Z,16.50
2024-02-15T08:51:49.632Z,16.50
2024-02-15T08:54:17.690Z,16.50
2024-02-15T08:56:45.663Z,16.60
2024-02-15T08:59:16.549Z,16.70
2024-02-15T09:01:47.456Z,16.40
2024-02-15T09:04:15.874Z,16.40
2024-02-15T09:06:46.070Z,16.50
2024-02-15T09:09:14.027Z,16.70
2024-02-15T09:11:44.092Z,16.60
2024-02-15T09:14:12.232Z,16.70
2024-02-15T09:16:43.117Z,16.80
2024-02-15T09:19:15.620Z,16.80
2024-02-15T09:21:43.736Z,16.90
2024-02-15T09:24:11.556Z,16.80
2024-02-15T09:26:41.623Z,16.80
2024-02-15T09:29:09.464Z,16.90
2024-02-15T09:31:43.303Z,16.90
2024-02-15T09:34:16.482Z,16.80
2024-02-15T09:36:44.473Z,16.90
2024-02-15T09:39:15.602Z,17.00
2024-02-15T09:41:46.837Z,17.10
2024-02-15T09:44:15.069Z,17.10
2024-02-15T09:46:46.839Z,17.00
2024-02-15T09:49:16.880Z,17.10
2024-02-15T09:51:48.510Z,17.20
2024-02-15T09:54:25.855Z,17.20
2024-02-15T09:56:55.824Z,17.10
2024-02-15T09:59:26.882Z,17.10
2024-02-15T10:02:03.613Z,17.10
2024-02-15T10:04:38.569Z,17.40
2024-02-15T10:07:06.957Z,17.50
2024-02-15T10:09:34.962Z,17.30
2024-02-15T10:12:03.280Z,17.30
2024-02-15T10:14:34.646Z,17.40
2024-02-15T10:17:12.259Z,17.40
2024-02-15T10:19:45.234Z,17.50
2024-02-15T10:22:15.834Z,17.50
2024-02-15T10:24:45.607Z,17.50
2024-02-15T10:27:13.745Z,17.50
2024-02-15T10:29:42.008Z,17.60
2024-02-15T10:32:11.718Z,17.50
2024-02-15T10:34:49.819Z,17.50
2024-02-15T10:37:23.285Z,17.50
2024-02-15T10:40:07.334Z,17.40
2024-02-15T10:42:36.750Z,17.50
2024-02-15T10:45:13.071Z,17.50
2024-02-15T10:47:44.550Z,17.50
2024-02-15T10:50:14.328Z,17.40
2024-02-15T10:52:53.669Z,17.30
2024-02-15T10:55:31.221Z,17.40
2024-02-15T10:58:08.118Z,17.40
2024-02-15T11:00:41.289Z,17.50
2024-02-15T11:03:10.673Z,17.40
2024-02-15T11:05:40.508Z,17.40
2024-02-15T11:08:11.413Z,17.50
2024-02-15T11:10:45.025Z,17.50
2024-02-15T11:13:15.154Z,17.50
2024-02-15T11:15:47.976Z,17.50
2024-02-15T11:18:47.089Z,17.50
2024-02-15T11:21:18.128Z,17.40
2024-02-15T11:23:46.441Z,17.50
2024-02-15T11:26:50.726Z,17.50
2024-02-15T11:29:53.404Z,17.40
2024-02-15T11:32:40.729Z,17.50
2024-02-15T11:35:16.375Z,17.50
2024-02-15T11:38:05.713Z,17.50
2024-02-15T11:41:02.111Z,17.30
2024-02-15T11:43:59.483Z,17.30
2024-02-15T11:46:31.714Z,17.30
2024-02-15T11:49:02.013Z,17.40
2024-02-15T11:51:34.675Z,17.20
2024-02-15T11:54:09.554Z,17.20
2024-02-15T11:57:06.466Z,17.20
2024-02-15T11:59:54.247Z,17.20
2024-02-15T12:02:40.541Z,17.30
2024-02-15T12:05:26.415Z,17.20
2024-02-15T12:08:12.548Z,17.20
2024-02-15T12:10:59.842Z,17.20
2024-02-15T12:13:45.084Z,17.20
2024-02-15T12:16:35.570Z,17.20
2024-02-15T12:19:04.594Z,16.90
2024-02-15T12:21:37.033Z,17.00
2024-02-15T12:24:07.269Z,17.20
2024-02-15T12:26:36.800Z,17.30
2024-02-15T12:29:07.404Z,17.40
2024-02-15T12:31:39.423Z,17.50
2024-02-15T12:34:09.256Z,17.50
2024-02-15T12:36:39.104Z,17.50
2024-02-15T12:39:13.261Z,17.40
2024-02-15T12:41:45.514Z,17.50
2024-02-15T12:44:13.324Z,17.50
2024-02-15T12:46:43.365Z,17.60
2024-02-15T12:49:14.551Z,17.70
2024-02-15T12:51:51.713Z,17.60
2024-02-15T12:54:22.515Z,17.60
2024-02-15T12:56:52.917Z,17.50
2024-02-15T12:59:22.272Z,17.50
2024-02-15T13:01:50.713Z,17.50
2024-02-15T13:04:25.450Z,17.50
2024-02-15T13:06:53.595Z,17.30
2024-02-15T13:09:24.126Z,17.20
2024-02-15T13:11:54.901Z,17.10
2024-02-15T13:14:26.932Z,17.20
2024-02-15T13:17:02.017Z,17.20
2024-02-15T13:19:32.534Z,17.10
2024-02-15T13:22:00.550Z,16.80
2024-02-15T13:24:28.415Z,16.60
2024-02-15T13:26:59.467Z,16.70
2024-02-15T13:29:28.189Z,16.70
2024-02-15T13:31:56.199Z,16.70
2024-02-15T13:34:24.162Z,16.70
2024-02-15T13:36:53.228Z,16.60
2024-02-15T13:39:23.062Z,16.60
2024-02-15T13:41:50.985Z,16.60
2024-02-15T13:44:25.612Z,16.60
2024-02-15T13:46:56.606Z,16.60
2024-02-15T13:49:33.124Z,16.50
2024-02-15T13:52:03.810Z,16.40
2024-02-15T13:54:32.550Z,16.50
2024-02-15T13:57:01.261Z,16.40
2024-02-15T13:59:31.005Z,16.30
2024-02-15T14:01:59.132Z,16.20
2024-02-15T14:04:29.649Z,16.40
2024-02-15T14:07:00.353Z,16.40
2024-02-15T14:09:30.547Z,16.40
2024-02-15T14:11:59.218Z,16.40
2024-02-15T14:14:28.313Z,16.40
2024-02-15T14:16:57.459Z,16.30
2024-02-15T14:19:27.544Z,16.30
2024-02-15T14:21:56.570Z,16.50
2024-02-15T14:24:24.545Z,16.50
2024-02-15T14:26:52.645Z,16.50
2024-02-15T14:29:24.113Z,16.40
2024-02-15T14:32:16.253Z,16.50
2024-02-15T14:34:44.073Z,16.50
2024-02-15T14:37:11.999Z,16.50
2024-02-15T14:39:39.876Z,16.50
2024-02-15T14:44:39.891Z,16.80
2024-02-15T14:47:14.724Z,16.80
2024-02-15T14:49:42.618Z,16.80
2024-02-15T14:52:10.402Z,16.90
2024-02-15T14:54:38.293Z,16.90
2024-02-15T14:57:08.003Z,16.80
2024-02-15T14:59:35.867Z,16.80
2024-02-15T15:02:13.005Z,16.80
2024-02-15T15:05:09.558Z,16.70
2024-02-15T15:07:55.146Z,16.70
2024-02-15T15:10:40.542Z,16.70
2024-02-15T15:13:08.910Z,16.80
2024-02-15T15:15:38.287Z,16.90
2024-02-15T15:18:06.769Z,16.90
2024-02-15T15:20:35.957Z,16.70
2024-02-15T15:23:03.873Z,16.60
2024-02-15T15:25:31.910Z,16.50
2024-02-15T15:27:59.980Z,16.70
2024-02-15T15:30:28.714Z,16.80
2024-02-15T15:32:56.878Z,16.80
2024-02-15T15:35:27.149Z,16.80
2024-02-15T15:37:58.282Z,16.70
2024-02-15T15:40:27.321Z,16.80
2024-02-15T15:42:55.955Z,16.80
2024-02-15T15:45:24.881Z,16.60
2024-02-15T15:47:52.810Z,16.60
2024-02-15T15:50:22.455Z,16.70
2024-02-15T15:52:52.416Z,16.60
2024-02-15T15:55:27.200Z,16.60
2024-02-15T15:57:55.211Z,16.70
2024-02-15T16:00:24.167Z,16.60
2024-02-15T16:02:52.922Z,16.60
2024-02-15T16:05:21.412Z,16.60
2024-02-15T16:07:50.364Z,16.90
2024-02-15T16:10:19.326Z,17.00
2024-02-15T16:12:49.418Z,17.10
2024-02-15T16:15:19.846Z,17.10
2024-02-15T16:17:48.139Z,17.00
2024-02-15T16:20:16.378Z,16.90
2024-02-15T16:22:45.037Z,16.80
2024-02-15T16:25:31.686Z,16.90
2024-02-15T16:28:01.890Z,16.90
2024-02-15T16:30:29.973Z,16.90
2024-02-15T16:32:58.197Z,17.10
2024-02-15T16:35:26.473Z,16.90
2024-02-15T16:37:54.727Z,17.00
2024-02-15T16:40:24.149Z,17.00
2024-02-15T16:42:54.658Z,17.10
2024-02-15T16:45:24.148Z,16.90
2024-02-15T16:47:57.468Z,17.00
2024-02-15T16:50:26.181Z,17.10
2024-02-15T16:52:54.391Z,17.00
2024-02-15T16:55:29.127Z,17.00
2024-02-15T16:58:03.224Z,17.00
2024-02-15T17:00:33.762Z,17.00
2024-02-15T17:03:07.000Z,16.80
2024-02-15T17:05:37.052Z,16.70
2024-02-15T17:08:07.521Z,16.60
2024-02-15T17:10:36.771Z,16.40
2024-02-15T17:13:07.008Z,16.50
2024-02-15T17:15:36.799Z,16.50
2024-02-15T17:18:05.873Z,16.60
2024-02-15T17:20:34.084Z,16.70
2024-02-15T17:23:03.362Z,16.90
2024-02-15T17:25:31.221Z,17.00
2024-02-15T17:28:00.253Z,16.80
2024-02-15T17:30:28.495Z,16.60
2024-02-15T17:32:57.762Z,16.60
2024-02-15T17:35:26.687Z,16.50
2024-02-15T17:37:56.589Z,16.30
2024-02-15T17:40:24.644Z,16.40
2024-02-15T17:42:52.833Z,16.30
2024-02-15T17:45:20.947Z,16.50
2024-02-15T17:47:48.785Z,16.40
2024-02-15T17:50:21.317Z,16.20
2024-02-15T17:52:49.639Z,16.40
2024-02-15T17:55:20.442Z,16.50
2024-02-15T17:57:52.121Z,16.50
2024-02-15T18:00:21.964Z,16.60
2024-02-15T18:02:51.366Z,16.50
2024-02-15T18:05:21.745Z,16.50
2024-02-15T18:07:50.354Z,16.60
2024-02-15T18:10:22.623Z,16.40
2024-02-15T18:12:50.940Z,16.20
2024-02-15T18:15:25.912Z,16.10
2024-02-15T18:17:57.483Z,16.10
2024-02-15T18:20:30.550Z,16.00
2024-02-15T18:22:58.342Z,16.00
2024-02-15T18:25:26.485Z,15.90
2024-02-15T18:27:54.294Z,15.80
2024-02-15T18:30:24.455Z,15.80
2024-02-15T18:32:54.775Z,15.70
2024-02-15T18:35:25.571Z,15.70
2024-02-15T18:37:55.174Z,15.70
2024-02-15T18:40:25.486Z,15.70
2024-02-15T18:42:54.747Z,15.60
2024-02-15T18:45:24.249Z,15.70
2024-02-15T18:47:52.739Z,15.50
2024-02-15T18:50:23.325Z,15.50
2024-02-15T18:52:52.049Z,15.40
2024-02-15T18:55:22.171Z,15.40
2024-02-15T18:57:50.843Z,15.00
2024-02-15T19:00:31.550Z,14.90
2024-02-15T19:03:05.837Z,15.00
2024-02-15T19:05:37.358Z,15.10
2024-02-15T19:08:06.026Z,15.10
2024-02-15T19:10:37.386Z,14.90
2024-02-15T19:13:05.850Z,14.90
2024-02-15T19:15:34.012Z,14.80
2024-02-15T19:18:06.250Z,14.80
2024-02-15T19:20:37.692Z,14.80
2024-02-15T19:23:08.866Z,14.70
2024-02-15T19:25:38.167Z,14.70
2024-02-15T19:28:09.878Z,14.70
2024-02-15T19:30:38.284Z,14.70
2024-02-15T19:33:07.252Z,14.70
2024-02-15T19:35:35.244Z,14.60
2024-02-15T19:38:03.742Z,14.50
2024-02-15T19:40:31.771Z,14.50
2024-02-15T19:43:01.145Z,14.40
2024-02-15T19:45:29.100Z,14.40
2024-02-15T19:47:57.745Z,14.40
2024-02-15T19:50:28.876Z,14.30
2024-02-15T19:52:58.615Z,14.30
2024-02-15T19:55:27.456Z,14.30
2024-02-15T19:57:57.710Z,14.30
2024-02-15T20:00:30.622Z,14.20
2024-02-15T20:03:00.817Z,14.30
2024-02-15T20:05:28.939Z,14.30
2024-02-15T20:07:57.749Z,14.40
2024-02-15T20:10:28.475Z,14.30
2024-02-15T20:12:56.450Z,14.40
2024-02-15T20:15:28.558Z,14.10
2024-02-15T20:17:58.619Z,14.20
2024-02-15T20:20:27.446Z,14.30
2024-02-15T20:22:55.407Z,14.40
2024-02-15T20:25:23.388Z,14.40
2024-02-15T20:27:51.344Z,14.60
2024-02-15T20:30:21.289Z,14.40
2024-02-15T20:32:49.252Z,14.40
2024-02-15T20:35:22.128Z,14.50
2024-02-15T20:37:50.372Z,14.60
2024-02-15T20:40:18.763Z,14.50
2024-02-15T20:42:47.672Z,14.50
2024-02-15T20:45:15.882Z,14.50
2024-02-15T20:47:44.624Z,14.50
2024-02-15T20:50:14.069Z,14.50
2024-02-15T20:52:44.484Z,14.40
2024-02-15T20:55:13.881Z,14.30
2024-02-15T20:57:41.924Z,14.40
2024-02-15T21:00:15.229Z,14.50
2024-02-15T21:02:45.129Z,14.50
2024-02-15T21:05:14.446Z,14.50
2024-02-15T21:07:43.787Z,14.50
2024-02-15T21:10:12.676Z,14.50
2024-02-15T21:12:40.758Z,14.40
2024-02-15T21:15:10.729Z,14.40
2024-02-15T21:17:42.797Z,14.40
2024-02-15T21:20:13.797Z,14.30
2024-02-15T21:22:53.212Z,14.20
2024-02-15T21:25:23.174Z,14.30
2024-02-15T21:27:54.092Z,14.30
2024-02-15T21:30:22.138Z,14.20
2024-02-15T21:32:53.805Z,14.20
2024-02-15T21:35:24.047Z,14.30
2024-02-15T21:37:55.727Z,14.10
2024-02-15T21:40:23.545Z,14.30
2024-02-15T21:42:53.192Z,14.50
2024-02-15T21:45:21.184Z,14.50
2024-02-15T21:47:49.294Z,14.50
2024-02-15T21:50:17.525Z,14.50
2024-02-15T21:52:45.503Z,14.50
2024-02-15T21:55:14.692Z,14.70
2024-02-15T21:57:42.779Z,14.80
2024-02-15T22:00:11.936Z,15.00
2024-02-15T22:02:40.049Z,15.10
2024-02-15T22:05:09.142Z,15.10
2024-02-15T22:07:37.088Z,15.20
2024-02-15T22:10:10.384Z,15.20
2024-02-15T22:12:41.557Z,15.10
2024-02-15T22:15:11.038Z,15.10
2024-02-15T22:17:42.572Z,15.10
2024-02-15T22:20:14.850Z,15.00
2024-02-15T22:22:45.083Z,15.10
2024-02-15T22:25:14.338Z,15.00
2024-02-15T22:27:47.378Z,15.00
2024-02-15T22:30:16.137Z,15.00
2024-02-15T22:32:44.153Z,15.10
2024-02-15T22:35:12.702Z,15.00
2024-02-15T22:37:40.667Z,15.00
2024-02-15T22:40:15.790Z,14.90
2024-02-15T22:42:47.736Z,15.00
2024-02-15T22:45:15.792Z,15.00
2024-02-15T22:47:44.316Z,15.10
2024-02-15T22:50:12.826Z,15.10
2024-02-15T22:52:40.944Z,15.10
2024-02-15T22:55:11.547Z,14.90
2024-02-15T22:57:39.576Z,14.60
2024-02-15T23:00:14.297Z,14.60
2024-02-15T23:02:42.491Z,14.70
2024-02-15T23:05:10.761Z,14.80
2024-02-15T23:07:39.787Z,14.80
2024-02-15T23:10:08.417Z,14.80
2024-02-15T23:12:37.191Z,14.80
2024-02-15T23:15:15.554Z,14.70
2024-02-15T23:17:46.837Z,14.50
2024-02-15T23:20:17.684Z,14.50
2024-02-15T23:22:51.721Z,14.40
2024-02-15T23:25:24.682Z,14.40
2024-02-15T23:27:52.584Z,14.30
2024-02-15T23:30:27.846Z,13.90
2024-02-15T23:32:59.073Z,14.00
2024-02-15T23:35:33.016Z,14.10
2024-02-15T23:38:21.959Z,14.00
2024-02-15T23:40:57.064Z,13.90
2024-02-15T23:43:26.427Z,14.10
2024-02-15T23:46:11.574Z,14.10
2024-02-15T23:48:41.612Z,14.10
2024-02-15T23:51:10.574Z,14.40
2024-02-15T23:53:38.398Z,14.70
2024-02-15T23:56:11.505Z,14.80
2024-02-15T23:58:40.976Z,14.90
